Anderson Acres, Nevada
Current Conditions -  °F | °C
As of 6:35 AM on Friday 31 Oct 2014 (Local Time) from KRTS Reporting Station
Few Clouds Few Clouds  
Wind Chill: 43°   Ceiling: Unl
Heat Index: 48°   Visibility: 10mi
Dew Point: 32°   Wind: 13mph
Humidity: 54%   Direction: 300°WNW
Pressure: 29.91"   Gusts: 18mph
Location:  39.7378°N, 119.889°W
Report Text: KRTS 311335Z AUTO 30011G16KT 10SM FEW100 09/00 A2991 RMK AO2
Loading
Personal Weather Stations






























Interactive Weather Map
Tropical Storm Tracking
New forecast layout! Learn more

10-Day Weather Forecast

Advertisements
Track Severe Weather on mobile